sensor_id;sensor_type;location;lat;lon;timestamp;temperature;humidity
10986;DHT22;5546;48.714;8.738;2022-09-21T00:01:20;10.40;96.90
10986;DHT22;5546;48.714;8.738;2022-09-21T00:03:46;10.00;97.30
10986;DHT22;5546;48.714;8.738;2022-09-21T00:06:15;10.00;97.70
10986;DHT22;5546;48.714;8.738;2022-09-21T00:08:41;10.20;97.80
10986;DHT22;5546;48.714;8.738;2022-09-21T00:11:11;10.50;97.10
10986;DHT22;5546;48.714;8.738;2022-09-21T00:13:37;10.50;97.00
10986;DHT22;5546;48.714;8.738;2022-09-21T00:16:06;10.50;96.90
10986;DHT22;5546;48.714;8.738;2022-09-21T00:18:32;10.50;96.80
10986;DHT22;5546;48.714;8.738;2022-09-21T00:20:58;10.20;97.10
10986;DHT22;5546;48.714;8.738;2022-09-21T00:23:23;10.40;96.50
10986;DHT22;5546;48.714;8.738;2022-09-21T00:25:49;10.40;96.40
10986;DHT22;5546;48.714;8.738;2022-09-21T00:28:14;10.40;96.70
10986;DHT22;5546;48.714;8.738;2022-09-21T00:30:40;10.30;96.40
10986;DHT22;5546;48.714;8.738;2022-09-21T00:33:06;10.30;96.70
10986;DHT22;5546;48.714;8.738;2022-09-21T00:35:31;10.30;97.10
10986;DHT22;5546;48.714;8.738;2022-09-21T00:38:02;10.30;96.60
10986;DHT22;5546;48.714;8.738;2022-09-21T00:40:28;10.20;96.30
10986;DHT22;5546;48.714;8.738;2022-09-21T00:43:10;10.20;96.70
10986;DHT22;5546;48.714;8.738;2022-09-21T00:45:36;10.10;96.30
10986;DHT22;5546;48.714;8.738;2022-09-21T00:48:02;10.00;96.30
10986;DHT22;5546;48.714;8.738;2022-09-21T00:50:28;10.00;97.10
10986;DHT22;5546;48.714;8.738;2022-09-21T00:52:56;9.90;97.30
10986;DHT22;5546;48.714;8.738;2022-09-21T00:55:30;10.20;96.90
10986;DHT22;5546;48.714;8.738;2022-09-21T00:58:04;10.40;96.60
10986;DHT22;5546;48.714;8.738;2022-09-21T01:00:32;10.60;96.70
10986;DHT22;5546;48.714;8.738;2022-09-21T01:02:58;10.70;96.60
10986;DHT22;5546;48.714;8.738;2022-09-21T01:05:27;10.60;96.70
10986;DHT22;5546;48.714;8.738;2022-09-21T01:07:53;10.70;96.40
10986;DHT22;5546;48.714;8.738;2022-09-21T01:10:20;10.70;96.70
10986;DHT22;5546;48.714;8.738;2022-09-21T01:13:03;10.50;97.10
10986;DHT22;5546;48.714;8.738;2022-09-21T01:18:29;10.50;97.20
10986;DHT22;5546;48.714;8.738;2022-09-21T01:21:11;10.50;97.20
10986;DHT22;5546;48.714;8.738;2022-09-21T01:24:12;10.50;97.10
10986;DHT22;5546;48.714;8.738;2022-09-21T01:29:56;10.60;96.30
10986;DHT22;5546;48.714;8.738;2022-09-21T01:32:28;10.80;95.90
10986;DHT22;5546;48.714;8.738;2022-09-21T01:35:12;10.70;96.10
10986;DHT22;5546;48.714;8.738;2022-09-21T01:38:16;10.70;96.40
10986;DHT22;5546;48.714;8.738;2022-09-21T01:40:46;10.70;96.30
10986;DHT22;5546;48.714;8.738;2022-09-21T01:43:21;10.70;96.60
10986;DHT22;5546;48.714;8.738;2022-09-21T01:45:51;10.60;96.80
10986;DHT22;5546;48.714;8.738;2022-09-21T01:48:19;10.20;97.40
10986;DHT22;5546;48.714;8.738;2022-09-21T01:50:51;10.20;97.80
10986;DHT22;5546;48.714;8.738;2022-09-21T01:53:37;10.40;97.70
10986;DHT22;5546;48.714;8.738;2022-09-21T01:56:17;10.70;96.80
10986;DHT22;5546;48.714;8.738;2022-09-21T02:01:13;10.90;96.60
10986;DHT22;5546;48.714;8.738;2022-09-21T02:03:43;10.60;96.40
10986;DHT22;5546;48.714;8.738;2022-09-21T02:06:12;10.50;96.90
10986;DHT22;5546;48.714;8.738;2022-09-21T02:08:38;9.90;97.40
10986;DHT22;5546;48.714;8.738;2022-09-21T02:11:05;9.50;98.70
10986;DHT22;5546;48.714;8.738;2022-09-21T02:13:37;10.10;98.30
10986;DHT22;5546;48.714;8.738;2022-09-21T02:19:14;10.50;97.20
10986;DHT22;5546;48.714;8.738;2022-09-21T02:21:57;9.90;97.70
10986;DHT22;5546;48.714;8.738;2022-09-21T02:24:53;9.70;98.20
10986;DHT22;5546;48.714;8.738;2022-09-21T02:27:31;9.40;99.70
10986;DHT22;5546;48.714;8.738;2022-09-21T02:30:07;9.50;99.10
10986;DHT22;5546;48.714;8.738;2022-09-21T02:38:16;10.10;98.10
10986;DHT22;5546;48.714;8.738;2022-09-21T02:41:15;9.90;98.30
10986;DHT22;5546;48.714;8.738;2022-09-21T02:43:58;10.10;98.10
10986;DHT22;5546;48.714;8.738;2022-09-21T02:49:34;9.80;98.70
10986;DHT22;5546;48.714;8.738;2022-09-21T02:52:06;9.90;98.70
10986;DHT22;5546;48.714;8.738;2022-09-21T02:54:34;9.80;98.20
10986;DHT22;5546;48.714;8.738;2022-09-21T02:57:01;9.60;99.10
10986;DHT22;5546;48.714;8.738;2022-09-21T02:59:28;9.50;99.20
10986;DHT22;5546;48.714;8.738;2022-09-21T03:01:54;9.70;99.00
10986;DHT22;5546;48.714;8.738;2022-09-21T03:06:46;9.60;98.70
10986;DHT22;5546;48.714;8.738;2022-09-21T03:09:11;10.00;98.30
10986;DHT22;5546;48.714;8.738;2022-09-21T03:11:37;10.30;97.50
10986;DHT22;5546;48.714;8.738;2022-09-21T03:14:03;10.10;97.40
10986;DHT22;5546;48.714;8.738;2022-09-21T03:16:34;10.00;97.70
10986;DHT22;5546;48.714;8.738;2022-09-21T03:18:59;9.70;98.60
10986;DHT22;5546;48.714;8.738;2022-09-21T03:21:25;9.70;98.90
10986;DHT22;5546;48.714;8.738;2022-09-21T03:23:51;9.90;98.60
10986;DHT22;5546;48.714;8.738;2022-09-21T03:26:16;9.90;98.40
10986;DHT22;5546;48.714;8.738;2022-09-21T03:28:47;9.90;98.30
10986;DHT22;5546;48.714;8.738;2022-09-21T03:31:13;9.90;97.80
10986;DHT22;5546;48.714;8.738;2022-09-21T03:33:38;9.80;98.10
10986;DHT22;5546;48.714;8.738;2022-09-21T03:36:04;9.30;99.60
10986;DHT22;5546;48.714;8.738;2022-09-21T03:38:29;9.70;98.50
10986;DHT22;5546;48.714;8.738;2022-09-21T03:40:55;9.70;98.70
10986;DHT22;5546;48.714;8.738;2022-09-21T03:43:22;10.00;98.00
10986;DHT22;5546;48.714;8.738;2022-09-21T03:45:48;10.00;98.20
10986;DHT22;5546;48.714;8.738;2022-09-21T03:48:14;9.70;98.20
10986;DHT22;5546;48.714;8.738;2022-09-21T03:50:41;9.70;98.20
10986;DHT22;5546;48.714;8.738;2022-09-21T03:53:07;9.90;98.20
10986;DHT22;5546;48.714;8.738;2022-09-21T03:55:33;10.20;97.70
10986;DHT22;5546;48.714;8.738;2022-09-21T03:57:59;10.20;97.40
10986;DHT22;5546;48.714;8.738;2022-09-21T04:00:25;10.20;97.60
10986;DHT22;5546;48.714;8.738;2022-09-21T04:02:51;10.10;96.90
10986;DHT22;5546;48.714;8.738;2022-09-21T04:05:17;10.10;97.10
10986;DHT22;5546;48.714;8.738;2022-09-21T04:07:43;9.90;97.10
10986;DHT22;5546;48.714;8.738;2022-09-21T04:10:15;9.60;97.70
10986;DHT22;5546;48.714;8.738;2022-09-21T04:12:41;9.90;97.20
10986;DHT22;5546;48.714;8.738;2022-09-21T04:15:10;9.80;97.40
10986;DHT22;5546;48.714;8.738;2022-09-21T04:17:36;9.40;98.00
10986;DHT22;5546;48.714;8.738;2022-09-21T04:20:02;9.30;98.30
10986;DHT22;5546;48.714;8.738;2022-09-21T04:22:28;9.40;98.00
10986;DHT22;5546;48.714;8.738;2022-09-21T04:24:53;9.40;98.30
10986;DHT22;5546;48.714;8.738;2022-09-21T04:27:19;9.20;98.60
10986;DHT22;5546;48.714;8.738;2022-09-21T04:29:44;8.50;98.80
10986;DHT22;5546;48.714;8.738;2022-09-21T04:32:10;8.00;99.70
10986;DHT22;5546;48.714;8.738;2022-09-21T04:34:36;8.00;99.90
10986;DHT22;5546;48.714;8.738;2022-09-21T04:37:06;8.30;99.90
10986;DHT22;5546;48.714;8.738;2022-09-21T04:39:33;8.20;99.60
10986;DHT22;5546;48.714;8.738;2022-09-21T04:41:59;7.80;99.90
10986;DHT22;5546;48.714;8.738;2022-09-21T04:44:24;7.70;99.90
10986;DHT22;5546;48.714;8.738;2022-09-21T04:46:50;7.70;99.90
10986;DHT22;5546;48.714;8.738;2022-09-21T04:49:15;8.10;99.90
10986;DHT22;5546;48.714;8.738;2022-09-21T04:51:41;8.10;99.90
10986;DHT22;5546;48.714;8.738;2022-09-21T04:54:06;7.90;99.90
10986;DHT22;5546;48.714;8.738;2022-09-21T04:56:32;7.90;99.90
10986;DHT22;5546;48.714;8.738;2022-09-21T04:58:58;8.00;99.90
10986;DHT22;5546;48.714;8.738;2022-09-21T05:01:23;8.00;99.90
10986;DHT22;5546;48.714;8.738;2022-09-21T05:03:49;7.90;99.90
10986;DHT22;5546;48.714;8.738;2022-09-21T05:06:14;8.20;99.70
10986;DHT22;5546;48.714;8.738;2022-09-21T05:08:40;8.30;99.60
10986;DHT22;5546;48.714;8.738;2022-09-21T05:11:24;8.50;98.90
10986;DHT22;5546;48.714;8.738;2022-09-21T05:13:50;8.40;99.10
10986;DHT22;5546;48.714;8.738;2022-09-21T05:16:17;7.80;99.90
10986;DHT22;5546;48.714;8.738;2022-09-21T05:18:43;8.20;99.90
10986;DHT22;5546;48.714;8.738;2022-09-21T05:21:11;8.40;99.20
10986;DHT22;5546;48.714;8.738;2022-09-21T05:23:37;8.50;99.30
10986;DHT22;5546;48.714;8.738;2022-09-21T05:26:02;8.40;99.50
10986;DHT22;5546;48.714;8.738;2022-09-21T05:28:28;8.50;98.90
10986;DHT22;5546;48.714;8.738;2022-09-21T05:31:02;8.60;98.70
10986;DHT22;5546;48.714;8.738;2022-09-21T05:33:29;8.50;99.00
10986;DHT22;5546;48.714;8.738;2022-09-21T05:38:42;8.70;98.90
10986;DHT22;5546;48.714;8.738;2022-09-21T05:41:08;8.80;98.80
10986;DHT22;5546;48.714;8.738;2022-09-21T05:43:34;8.90;98.60
10986;DHT22;5546;48.714;8.738;2022-09-21T05:46:12;9.00;98.10
10986;DHT22;5546;48.714;8.738;2022-09-21T05:49:19;9.00;98.30
10986;DHT22;5546;48.714;8.738;2022-09-21T05:51:46;9.00;98.40
10986;DHT22;5546;48.714;8.738;2022-09-21T05:54:21;8.90;98.40
10986;DHT22;5546;48.714;8.738;2022-09-21T05:57:12;8.30;98.90
10986;DHT22;5546;48.714;8.738;2022-09-21T05:59:53;8.30;99.30
10986;DHT22;5546;48.714;8.738;2022-09-21T06:02:54;8.50;99.20
10986;DHT22;5546;48.714;8.738;2022-09-21T06:05:22;8.70;98.70
10986;DHT22;5546;48.714;8.738;2022-09-21T06:07:48;8.70;98.90
10986;DHT22;5546;48.714;8.738;2022-09-21T06:10:14;8.40;98.80
10986;DHT22;5546;48.714;8.738;2022-09-21T06:12:40;8.60;98.50
10986;DHT22;5546;48.714;8.738;2022-09-21T06:15:07;8.40;98.50
10986;DHT22;5546;48.714;8.738;2022-09-21T06:17:34;8.50;98.70
10986;DHT22;5546;48.714;8.738;2022-09-21T06:20:00;8.50;98.90
10986;DHT22;5546;48.714;8.738;2022-09-21T06:22:27;8.90;97.90
10986;DHT22;5546;48.714;8.738;2022-09-21T06:24:52;8.60;98.10
10986;DHT22;5546;48.714;8.738;2022-09-21T06:27:18;8.60;98.40
10986;DHT22;5546;48.714;8.738;2022-09-21T06:29:44;8.80;98.30
10986;DHT22;5546;48.714;8.738;2022-09-21T06:32:09;8.80;98.60
10986;DHT22;5546;48.714;8.738;2022-09-21T06:34:35;9.50;96.90
10986;DHT22;5546;48.714;8.738;2022-09-21T06:37:02;9.10;97.30
10986;DHT22;5546;48.714;8.738;2022-09-21T06:39:28;9.00;97.80
10986;DHT22;5546;48.714;8.738;2022-09-21T06:41:53;9.00;98.10
10986;DHT22;5546;48.714;8.738;2022-09-21T06:44:19;9.10;97.60
10986;DHT22;5546;48.714;8.738;2022-09-21T06:46:45;9.30;97.20
10986;DHT22;5546;48.714;8.738;2022-09-21T06:49:10;9.10;97.70
10986;DHT22;5546;48.714;8.738;2022-09-21T06:51:36;9.20;97.30
10986;DHT22;5546;48.714;8.738;2022-09-21T06:54:01;9.20;97.50
10986;DHT22;5546;48.714;8.738;2022-09-21T06:56:27;9.40;97.30
10986;DHT22;5546;48.714;8.738;2022-09-21T06:58:54;9.60;97.10
10986;DHT22;5546;48.714;8.738;2022-09-21T07:01:19;9.90;96.10
10986;DHT22;5546;48.714;8.738;2022-09-21T07:03:48;10.10;96.20
10986;DHT22;5546;48.714;8.738;2022-09-21T07:06:16;10.20;96.50
10986;DHT22;5546;48.714;8.738;2022-09-21T07:08:42;10.00;96.10
10986;DHT22;5546;48.714;8.738;2022-09-21T07:11:09;10.20;96.50
10986;DHT22;5546;48.714;8.738;2022-09-21T07:13:35;10.20;95.40
10986;DHT22;5546;48.714;8.738;2022-09-21T07:16:04;10.70;95.70
10986;DHT22;5546;48.714;8.738;2022-09-21T07:18:34;11.50;94.00
10986;DHT22;5546;48.714;8.738;2022-09-21T07:21:05;11.50;94.20
10986;DHT22;5546;48.714;8.738;2022-09-21T07:23:31;11.60;93.60
10986;DHT22;5546;48.714;8.738;2022-09-21T07:26:01;11.30;93.90
10986;DHT22;5546;48.714;8.738;2022-09-21T07:28:27;11.80;94.00
10986;DHT22;5546;48.714;8.738;2022-09-21T07:30:53;12.00;94.30
10986;DHT22;5546;48.714;8.738;2022-09-21T07:33:18;12.90;92.40
10986;DHT22;5546;48.714;8.738;2022-09-21T07:35:54;13.00;91.60
10986;DHT22;5546;48.714;8.738;2022-09-21T07:38:22;13.50;91.50
10986;DHT22;5546;48.714;8.738;2022-09-21T07:40:48;13.60;91.50
10986;DHT22;5546;48.714;8.738;2022-09-21T07:43:14;14.20;90.60
10986;DHT22;5546;48.714;8.738;2022-09-21T07:45:40;15.30;87.60
10986;DHT22;5546;48.714;8.738;2022-09-21T07:48:06;16.40;83.50
10986;DHT22;5546;48.714;8.738;2022-09-21T07:50:33;17.00;81.00
10986;DHT22;5546;48.714;8.738;2022-09-21T07:53:00;18.60;77.00
10986;DHT22;5546;48.714;8.738;2022-09-21T07:55:26;18.90;75.00
10986;DHT22;5546;48.714;8.738;2022-09-21T07:57:52;18.50;74.40
10986;DHT22;5546;48.714;8.738;2022-09-21T08:00:36;19.30;72.70
10986;DHT22;5546;48.714;8.738;2022-09-21T08:03:03;20.10;70.70
10986;DHT22;5546;48.714;8.738;2022-09-21T08:05:29;19.50;69.00
10986;DHT22;5546;48.714;8.738;2022-09-21T08:07:55;19.70;71.80
10986;DHT22;5546;48.714;8.738;2022-09-21T08:10:22;20.20;69.30
10986;DHT22;5546;48.714;8.738;2022-09-21T08:12:48;19.70;70.10
10986;DHT22;5546;48.714;8.738;2022-09-21T08:15:14;20.00;69.00
10986;DHT22;5546;48.714;8.738;2022-09-21T08:17:39;22.10;65.50
10986;DHT22;5546;48.714;8.738;2022-09-21T08:20:05;23.40;61.00
10986;DHT22;5546;48.714;8.738;2022-09-21T08:22:31;24.00;58.70
10986;DHT22;5546;48.714;8.738;2022-09-21T08:24:57;24.20;57.90
10986;DHT22;5546;48.714;8.738;2022-09-21T08:27:23;25.40;56.20
10986;DHT22;5546;48.714;8.738;2022-09-21T08:29:50;26.30;54.00
10986;DHT22;5546;48.714;8.738;2022-09-21T08:32:16;27.50;52.10
10986;DHT22;5546;48.714;8.738;2022-09-21T08:34:41;26.20;52.50
10986;DHT22;5546;48.714;8.738;2022-09-21T08:37:08;26.90;51.50
10986;DHT22;5546;48.714;8.738;2022-09-21T08:39:33;26.70;51.20
10986;DHT22;5546;48.714;8.738;2022-09-21T08:42:09;27.80;51.30
10986;DHT22;5546;48.714;8.738;2022-09-21T08:44:54;29.00;48.80
10986;DHT22;5546;48.714;8.738;2022-09-21T08:50:02;27.20;50.30
10986;DHT22;5546;48.714;8.738;2022-09-21T08:52:28;25.10;53.00
10986;DHT22;5546;48.714;8.738;2022-09-21T08:55:16;24.60;55.30
10986;DHT22;5546;48.714;8.738;2022-09-21T08:57:42;25.30;53.90
10986;DHT22;5546;48.714;8.738;2022-09-21T09:00:14;27.00;54.10
10986;DHT22;5546;48.714;8.738;2022-09-21T09:03:15;29.00;50.70
10986;DHT22;5546;48.714;8.738;2022-09-21T09:05:51;27.90;48.40
10986;DHT22;5546;48.714;8.738;2022-09-21T09:08:43;26.70;49.00
10986;DHT22;5546;48.714;8.738;2022-09-21T09:11:46;23.50;52.60
10986;DHT22;5546;48.714;8.738;2022-09-21T09:20:20;20.00;59.20
10986;DHT22;5546;48.714;8.738;2022-09-21T09:25:21;18.00;65.60
10986;DHT22;5546;48.714;8.738;2022-09-21T09:27:54;17.40;69.20
10986;DHT22;5546;48.714;8.738;2022-09-21T09:30:24;17.00;71.80
10986;DHT22;5546;48.714;8.738;2022-09-21T09:33:07;17.00;71.60
10986;DHT22;5546;48.714;8.738;2022-09-21T09:35:49;17.90;70.40
10986;DHT22;5546;48.714;8.738;2022-09-21T09:38:28;18.10;70.10
10986;DHT22;5546;48.714;8.738;2022-09-21T09:44:12;24.60;54.60
10986;DHT22;5546;48.714;8.738;2022-09-21T09:52:10;27.70;49.60
10986;DHT22;5546;48.714;8.738;2022-09-21T09:54:37;29.70;45.80
10986;DHT22;5546;48.714;8.738;2022-09-21T09:57:04;29.30;44.20
10986;DHT22;5546;48.714;8.738;2022-09-21T09:59:45;28.50;45.60
10986;DHT22;5546;48.714;8.738;2022-09-21T10:02:25;28.70;45.10
10986;DHT22;5546;48.714;8.738;2022-09-21T10:05:03;28.60;43.70
10986;DHT22;5546;48.714;8.738;2022-09-21T10:10:02;26.60;46.70
10986;DHT22;5546;48.714;8.738;2022-09-21T10:12:28;24.50;48.60
10986;DHT22;5546;48.714;8.738;2022-09-21T10:14:56;24.50;49.60
10986;DHT22;5546;48.714;8.738;2022-09-21T10:17:25;24.50;49.00
10986;DHT22;5546;48.714;8.738;2022-09-21T10:19:59;24.40;49.50
10986;DHT22;5546;48.714;8.738;2022-09-21T10:22:25;23.90;49.10
10986;DHT22;5546;48.714;8.738;2022-09-21T10:24:53;21.80;52.20
10986;DHT22;5546;48.714;8.738;2022-09-21T10:27:25;21.00;54.50
10986;DHT22;5546;48.714;8.738;2022-09-21T10:29:52;21.40;54.40
10986;DHT22;5546;48.714;8.738;2022-09-21T10:32:25;21.40;55.10
10986;DHT22;5546;48.714;8.738;2022-09-21T10:37:38;21.50;53.50
10986;DHT22;5546;48.714;8.738;2022-09-21T10:42:48;23.60;50.90
10986;DHT22;5546;48.714;8.738;2022-09-21T10:45:20;23.60;51.40
10986;DHT22;5546;48.714;8.738;2022-09-21T10:47:51;24.80;48.00
10986;DHT22;5546;48.714;8.738;2022-09-21T10:50:40;26.30;46.60
10986;DHT22;5546;48.714;8.738;2022-09-21T10:58:33;27.60;44.50
10986;DHT22;5546;48.714;8.738;2022-09-21T11:01:21;28.50;44.80
10986;DHT22;5546;48.714;8.738;2022-09-21T11:06:36;27.40;45.10
10986;DHT22;5546;48.714;8.738;2022-09-21T11:09:24;28.30;44.20
10986;DHT22;5546;48.714;8.738;2022-09-21T11:15:02;27.40;43.40
10986;DHT22;5546;48.714;8.738;2022-09-21T11:17:51;29.60;40.40
10986;DHT22;5546;48.714;8.738;2022-09-21T11:20:29;29.60;40.10
10986;DHT22;5546;48.714;8.738;2022-09-21T11:23:15;29.70;41.30
10986;DHT22;5546;48.714;8.738;2022-09-21T11:28:56;30.40;40.60
10986;DHT22;5546;48.714;8.738;2022-09-21T11:32:36;28.50;41.20
10986;DHT22;5546;48.714;8.738;2022-09-21T11:37:34;23.20;47.30
10986;DHT22;5546;48.714;8.738;2022-09-21T11:40:13;24.80;46.90
10986;DHT22;5546;48.714;8.738;2022-09-21T11:51:12;30.20;39.30
10986;DHT22;5546;48.714;8.738;2022-09-21T11:54:07;28.60;41.00
10986;DHT22;5546;48.714;8.738;2022-09-21T12:02:19;27.20;43.50
10986;DHT22;5546;48.714;8.738;2022-09-21T12:05:19;27.80;42.40
10986;DHT22;5546;48.714;8.738;2022-09-21T12:13:27;25.10;46.60
10986;DHT22;5546;48.714;8.738;2022-09-21T12:16:24;26.60;43.80
10986;DHT22;5546;48.714;8.738;2022-09-21T12:21:42;24.60;45.50
10986;DHT22;5546;48.714;8.738;2022-09-21T12:26:55;23.00;45.00
10986;DHT22;5546;48.714;8.738;2022-09-21T12:29:24;23.30;46.60
10986;DHT22;5546;48.714;8.738;2022-09-21T12:32:14;25.60;44.10
10986;DHT22;5546;48.714;8.738;2022-09-21T12:34:44;27.10;41.90
10986;DHT22;5546;48.714;8.738;2022-09-21T12:37:16;27.10;42.30
10986;DHT22;5546;48.714;8.738;2022-09-21T12:45:27;24.60;45.40
10986;DHT22;5546;48.714;8.738;2022-09-21T12:50:54;25.50;46.50
10986;DHT22;5546;48.714;8.738;2022-09-21T12:53:25;26.30;44.10
10986;DHT22;5546;48.714;8.738;2022-09-21T12:56:30;26.00;44.50
10986;DHT22;5546;48.714;8.738;2022-09-21T12:59:15;24.60;46.50
10986;DHT22;5546;48.714;8.738;2022-09-21T13:02:09;24.50;46.40
10986;DHT22;5546;48.714;8.738;2022-09-21T13:07:48;23.20;48.60
10986;DHT22;5546;48.714;8.738;2022-09-21T13:10:47;23.10;49.30
10986;DHT22;5546;48.714;8.738;2022-09-21T13:13:30;20.70;52.90
10986;DHT22;5546;48.714;8.738;2022-09-21T13:15:57;20.50;53.60
10986;DHT22;5546;48.714;8.738;2022-09-21T13:18:29;20.50;54.90
10986;DHT22;5546;48.714;8.738;2022-09-21T13:20:59;23.40;48.80
10986;DHT22;5546;48.714;8.738;2022-09-21T13:23:36;24.80;45.90
10986;DHT22;5546;48.714;8.738;2022-09-21T13:26:08;27.20;43.20
10986;DHT22;5546;48.714;8.738;2022-09-21T13:39:35;29.40;40.20
10986;DHT22;5546;48.714;8.738;2022-09-21T13:44:58;25.50;44.60
10986;DHT22;5546;48.714;8.738;2022-09-21T13:47:35;24.40;47.10
10986;DHT22;5546;48.714;8.738;2022-09-21T13:50:28;23.10;49.10
10986;DHT22;5546;48.714;8.738;2022-09-21T13:53:00;22.30;50.40
10986;DHT22;5546;48.714;8.738;2022-09-21T13:55:32;21.90;52.10
10986;DHT22;5546;48.714;8.738;2022-09-21T13:58:02;21.90;52.50
10986;DHT22;5546;48.714;8.738;2022-09-21T14:01:30;21.70;52.20
10986;DHT22;5546;48.714;8.738;2022-09-21T14:06:06;21.90;54.50
10986;DHT22;5546;48.714;8.738;2022-09-21T14:08:37;20.70;54.20
10986;DHT22;5546;48.714;8.738;2022-09-21T14:11:15;20.70;53.00
10986;DHT22;5546;48.714;8.738;2022-09-21T14:13:45;20.60;53.00
10986;DHT22;5546;48.714;8.738;2022-09-21T14:18:58;20.00;52.10
10986;DHT22;5546;48.714;8.738;2022-09-21T14:21:24;20.00;52.60
10986;DHT22;5546;48.714;8.738;2022-09-21T14:31:39;20.80;53.90
10986;DHT22;5546;48.714;8.738;2022-09-21T14:34:11;19.60;54.70
10986;DHT22;5546;48.714;8.738;2022-09-21T14:36:43;19.90;54.80
10986;DHT22;5546;48.714;8.738;2022-09-21T14:39:24;19.90;55.20
10986;DHT22;5546;48.714;8.738;2022-09-21T14:41:53;19.80;55.80
10986;DHT22;5546;48.714;8.738;2022-09-21T14:44:23;19.40;55.50
10986;DHT22;5546;48.714;8.738;2022-09-21T14:54:47;18.50;64.10
10986;DHT22;5546;48.714;8.738;2022-09-21T14:57:39;18.40;64.60
10986;DHT22;5546;48.714;8.738;2022-09-21T15:00:22;18.70;68.50
10986;DHT22;5546;48.714;8.738;2022-09-21T15:10:02;18.70;55.80
10986;DHT22;5546;48.714;8.738;2022-09-21T15:15:55;18.90;55.10
10986;DHT22;5546;48.714;8.738;2022-09-21T15:18:22;18.80;55.50
10986;DHT22;5546;48.714;8.738;2022-09-21T15:21:02;18.10;55.70
10986;DHT22;5546;48.714;8.738;2022-09-21T15:23:38;18.00;56.00
10986;DHT22;5546;48.714;8.738;2022-09-21T15:26:14;18.00;56.30
10986;DHT22;5546;48.714;8.738;2022-09-21T15:28:45;18.50;57.50
10986;DHT22;5546;48.714;8.738;2022-09-21T15:31:17;18.60;57.90
10986;DHT22;5546;48.714;8.738;2022-09-21T15:33:43;18.40;59.10
10986;DHT22;5546;48.714;8.738;2022-09-21T15:36:12;18.40;59.40
10986;DHT22;5546;48.714;8.738;2022-09-21T15:38:47;17.60;59.80
10986;DHT22;5546;48.714;8.738;2022-09-21T15:44:23;18.20;64.90
10986;DHT22;5546;48.714;8.738;2022-09-21T15:46:52;18.20;61.70
10986;DHT22;5546;48.714;8.738;2022-09-21T15:51:53;18.50;58.10
10986;DHT22;5546;48.714;8.738;2022-09-21T15:56:51;19.00;56.70
10986;DHT22;5546;48.714;8.738;2022-09-21T15:59:19;18.00;56.60
10986;DHT22;5546;48.714;8.738;2022-09-21T16:01:48;18.10;56.20
10986;DHT22;5546;48.714;8.738;2022-09-21T16:04:23;18.30;56.10
10986;DHT22;5546;48.714;8.738;2022-09-21T16:11:53;18.30;57.00
10986;DHT22;5546;48.714;8.738;2022-09-21T16:14:19;18.00;59.30
10986;DHT22;5546;48.714;8.738;2022-09-21T16:22:48;17.60;62.90
10986;DHT22;5546;48.714;8.738;2022-09-21T16:27:54;17.60;67.80
10986;DHT22;5546;48.714;8.738;2022-09-21T16:30:44;17.20;69.70
10986;DHT22;5546;48.714;8.738;2022-09-21T16:38:49;16.60;59.90
10986;DHT22;5546;48.714;8.738;2022-09-21T16:41:17;16.60;60.50
10986;DHT22;5546;48.714;8.738;2022-09-21T16:43:43;16.90;68.90
10986;DHT22;5546;48.714;8.738;2022-09-21T16:46:10;16.90;69.40
10986;DHT22;5546;48.714;8.738;2022-09-21T16:48:35;17.10;65.70
10986;DHT22;5546;48.714;8.738;2022-09-21T16:51:01;17.20;66.40
10986;DHT22;5546;48.714;8.738;2022-09-21T16:53:27;17.10;69.60
10986;DHT22;5546;48.714;8.738;2022-09-21T16:55:53;16.70;68.20
10986;DHT22;5546;48.714;8.738;2022-09-21T16:58:20;16.60;69.00
10986;DHT22;5546;48.714;8.738;2022-09-21T17:00:48;16.60;70.10
10986;DHT22;5546;48.714;8.738;2022-09-21T17:03:16;16.30;71.50
10986;DHT22;5546;48.714;8.738;2022-09-21T17:05:41;16.30;73.70
10986;DHT22;5546;48.714;8.738;2022-09-21T17:08:08;16.20;74.20
10986;DHT22;5546;48.714;8.738;2022-09-21T17:10:40;16.10;75.30
10986;DHT22;5546;48.714;8.738;2022-09-21T17:13:07;15.60;77.20
10986;DHT22;5546;48.714;8.738;2022-09-21T17:15:34;15.40;77.80
10986;DHT22;5546;48.714;8.738;2022-09-21T17:18:03;15.30;78.50
10986;DHT22;5546;48.714;8.738;2022-09-21T17:20:37;15.20;78.00
10986;DHT22;5546;48.714;8.738;2022-09-21T17:23:03;15.20;79.80
10986;DHT22;5546;48.714;8.738;2022-09-21T17:25:30;15.00;76.80
10986;DHT22;5546;48.714;8.738;2022-09-21T17:27:57;14.60;77.90
10986;DHT22;5546;48.714;8.738;2022-09-21T17:30:23;14.40;80.10
10986;DHT22;5546;48.714;8.738;2022-09-21T17:32:49;14.30;80.60
10986;DHT22;5546;48.714;8.738;2022-09-21T17:35:16;14.30;79.20
10986;DHT22;5546;48.714;8.738;2022-09-21T17:37:43;14.30;79.80
10986;DHT22;5546;48.714;8.738;2022-09-21T17:40:09;13.90;80.80
10986;DHT22;5546;48.714;8.738;2022-09-21T17:42:39;14.20;80.90
10986;DHT22;5546;48.714;8.738;2022-09-21T17:45:37;14.20;81.10
10986;DHT22;5546;48.714;8.738;2022-09-21T17:48:11;14.00;80.50
10986;DHT22;5546;48.714;8.738;2022-09-21T17:50:37;14.00;81.20
10986;DHT22;5546;48.714;8.738;2022-09-21T17:53:03;13.60;83.30
10986;DHT22;5546;48.714;8.738;2022-09-21T17:55:50;13.70;82.60
10986;DHT22;5546;48.714;8.738;2022-09-21T17:58:43;13.60;82.50
10986;DHT22;5546;48.714;8.738;2022-09-21T18:01:39;13.20;83.60
10986;DHT22;5546;48.714;8.738;2022-09-21T18:04:06;13.50;84.20
10986;DHT22;5546;48.714;8.738;2022-09-21T18:06:34;13.50;84.50
10986;DHT22;5546;48.714;8.738;2022-09-21T18:09:01;13.50;84.00
10986;DHT22;5546;48.714;8.738;2022-09-21T18:25:34;12.90;87.20
10986;DHT22;5546;48.714;8.738;2022-09-21T18:28:10;12.60;88.00
10986;DHT22;5546;48.714;8.738;2022-09-21T18:30:38;12.70;88.60
10986;DHT22;5546;48.714;8.738;2022-09-21T18:34:19;12.60;87.80
10986;DHT22;5546;48.714;8.738;2022-09-21T18:38:53;12.60;88.10
10986;DHT22;5546;48.714;8.738;2022-09-21T18:44:17;12.80;88.50
10986;DHT22;5546;48.714;8.738;2022-09-21T18:47:09;12.70;87.20
10986;DHT22;5546;48.714;8.738;2022-09-21T18:50:01;12.80;88.00
10986;DHT22;5546;48.714;8.738;2022-09-21T18:55:17;12.80;87.40
10986;DHT22;5546;48.714;8.738;2022-09-21T18:57:46;12.90;87.30
10986;DHT22;5546;48.714;8.738;2022-09-21T19:00:12;12.90;87.00
10986;DHT22;5546;48.714;8.738;2022-09-21T19:02:39;12.70;87.10
10986;DHT22;5546;48.714;8.738;2022-09-21T19:05:05;12.60;87.60
10986;DHT22;5546;48.714;8.738;2022-09-21T19:07:41;12.60;88.10
10986;DHT22;5546;48.714;8.738;2022-09-21T19:10:26;12.60;87.50
10986;DHT22;5546;48.714;8.738;2022-09-21T19:16:02;12.60;87.80
10986;DHT22;5546;48.714;8.738;2022-09-21T19:21:44;12.10;88.90
10986;DHT22;5546;48.714;8.738;2022-09-21T19:24:25;12.10;89.30
10986;DHT22;5546;48.714;8.738;2022-09-21T19:32:34;12.10;89.00
10986;DHT22;5546;48.714;8.738;2022-09-21T19:35:21;12.20;88.70
10986;DHT22;5546;48.714;8.738;2022-09-21T19:37:47;12.20;89.30
10986;DHT22;5546;48.714;8.738;2022-09-21T19:40:15;12.20;89.20
10986;DHT22;5546;48.714;8.738;2022-09-21T19:46:23;12.10;88.70
10986;DHT22;5546;48.714;8.738;2022-09-21T19:48:39;12.10;89.20
10986;DHT22;5546;48.714;8.738;2022-09-21T19:51:51;12.10;89.20
10986;DHT22;5546;48.714;8.738;2022-09-21T19:54:00;11.80;90.00
10986;DHT22;5546;48.714;8.738;2022-09-21T19:56:48;11.80;90.20